Terminal Aerodrome Forecast
Issued by NWS

Home | Current Version | Previous Version | Text Only | Print | Product List | Glossary On
Versions: 1 2 3 4 5 6 7 8 9 10 11 12 13 14
352
FTPA31 PHFO 160539
TAFHMK
TAF
PHMK 160539Z 1606/1706 03010KT P6SM FEW025 SCT035
     FM162000 04014G22KT P6SM FEW025 SCT035
     FM170400 04012G19KT P6SM FEW025 SCT035=

USA.gov is the U.S. government's official web portal to all federal, state and local government web resources and services.